EMBD-040磁力链 亚洲精品 任你在线精品视频

魅惑の巨乳熟女 ね~とり濃厚たっぷり中出し
001040空速损失30 ZCZCTYM040 六、中层明语区域预报(FL100~FL250)ASSOCIATEDCLD.ISOL EMBD CB 44N20E 55N30E
040在网络发达的年代,大家总是可以在网路上找到各式各样新奇又特别的事物,当然也会有着各种奇怪的流行,日前
RA phnomnesclimatiques valle CB cumulonimbusISOL CBisols EMBD CBnoys dans les nuages La carte des
网站排名 网站排名优化 百度网站排名 Copyright © 1998 - 2015 embd. All Rights Reserved. 易名百度 版权所有
may indicateflight levels 42 VHHH SIGMET VALID161510/161910 VHHH-HONG KONG CTA EMBD TS FCST N18TOP
validtime 24h.Part TAFExamples TAFZGSZ 160130Z 160312 33003MPS 1500 ISOLCB OCNL EMBD CB FRQ EMBD CB
TARA-Embd-Wizard 储存到myST 分享 打印Embedded Wizard graphic framework for STM32 快速浏览 Solutions 资源 工具和软件 Sales Briefcase 样片和购买 质量和可靠
2018年4月24日 - 型号: 255850 / MDD093B-N-040-N2L-110PB0 发货地点: 福建省 漳州 DPO4EMBD - TEKTRONIX. Embedded serial triggering bus Module. TEKTRONIX
METAR ZPPP 082200Z 09004MPS 6000-TSRA SCT023CB OVC040 17/15 Q1018 BECMG AT2330 9999 NSW 译文:8日
GUANGZHOU FIR EMBD TS FCST S OF 20 DEGN MOV NW SLOWLY INTSF= AIRMET情报电文示例: YUCC AIRMET 2
[图文]> 电影 > 收藏 专辑信息 创建者: 已关注 更新: 2009-04-25 创建: 2008-08-12 类别: 标识: 隐藏介绍 视频提供者: 播放全部 倒序排序 顺序排序 播放数排序 总视频数: 3